Time;durP1;ratioP1;P1;durP2;ratioP2;P2;SDS_P1;SDS_P2;PMS_P1;PMS_P2;Temp;Humidity;BMP_temperature;BMP_pressure;BME280_temperature;BME280_humidity;BME280_pressure;Samples;Min_cycle;Max_cycle;Signal;HPM_P1;HPM_P2
2021/09/14 00:02:09;;;;;;;8.68;7.00;;;;;;;;;;5036964;28;20044;-71
2021/09/14 00:04:54;;;;;;;9.38;7.40;;;;;;;;;;5030588;28;20556;-72
2021/09/14 00:07:38;;;;;;;8.50;7.60;;;;;;;;;;5029968;28;20540;-72
2021/09/14 00:10:23;;;;;;;9.98;7.05;;;;;;;;;;5044574;28;20140;-72
2021/09/14 00:13:08;;;;;;;10.23;8.38;;;;;;;;;;5034656;28;20831;-72
2021/09/14 00:15:53;;;;;;;8.40;7.60;;;;;;;;;;5032086;28;20044;-71
2021/09/14 00:18:38;;;;;;;8.88;7.50;;;;;;;;;;5039017;28;20234;-71
2021/09/14 00:21:22;;;;;;;7.75;6.82;;;;;;;;;;5024558;28;20046;-72
2021/09/14 00:24:07;;;;;;;8.40;6.85;;;;;;;;;;5044098;28;20075;-70
2021/09/14 00:26:51;;;;;;;8.70;7.03;;;;;;;;;;5025488;28;20065;-71
2021/09/14 00:29:36;;;;;;;8.55;6.95;;;;;;;;;;5025321;28;20680;-71
2021/09/14 00:32:20;;;;;;;8.23;7.22;;;;;;;;;;5029463;28;20055;-71
2021/09/14 00:35:05;;;;;;;8.65;6.93;;;;;;;;;;5031363;28;20086;-71
2021/09/14 00:37:50;;;;;;;8.30;7.00;;;;;;;;;;5029747;28;20095;-71
2021/09/14 00:40:34;;;;;;;7.80;6.57;;;;;;;;;;5038243;28;20122;-71
2021/09/14 00:43:22;;;;;;;9.35;7.43;;;;;;;;;;5037046;28;20036;-71
2021/09/14 00:46:07;;;;;;;8.35;6.78;;;;;;;;;;5039181;28;20780;-72
2021/09/14 00:48:51;;;;;;;9.30;7.45;;;;;;;;;;5039866;28;20051;-71
2021/09/14 00:51:36;;;;;;;8.15;6.63;;;;;;;;;;5043113;28;20509;-72
2021/09/14 00:54:20;;;;;;;8.52;6.72;;;;;;;;;;5034090;28;20064;-72
2021/09/14 00:57:05;;;;;;;8.63;6.90;;;;;;;;;;5040997;28;20157;-71
2021/09/14 00:59:50;;;;;;;8.95;6.63;;;;;;;;;;5040317;28;20047;-71
2021/09/14 01:02:35;;;;;;;8.43;6.65;;;;;;;;;;5031411;28;20040;-71
2021/09/14 01:05:19;;;;;;;7.10;6.40;;;;;;;;;;5029154;28;20043;-70
2021/09/14 01:08:04;;;;;;;7.70;6.90;;;;;;;;;;5038146;28;20724;-71
2021/09/14 01:10:49;;;;;;;7.63;6.80;;;;;;;;;;5035223;28;20194;-71
2021/09/14 01:13:33;;;;;;;8.27;7.32;;;;;;;;;;5044939;28;20516;-72
2021/09/14 01:16:18;;;;;;;7.40;6.18;;;;;;;;;;5029109;28;20079;-71
2021/09/14 01:19:04;;;;;;;7.70;6.90;;;;;;;;;;5042380;28;20139;-73
2021/09/14 01:21:48;;;;;;;8.25;7.13;;;;;;;;;;5055881;28;20178;-72
2021/09/14 01:24:33;;;;;;;7.72;6.47;;;;;;;;;;5052374;28;20097;-72
2021/09/14 01:27:17;;;;;;;7.53;6.70;;;;;;;;;;5036768;28;20048;-70
2021/09/14 01:30:12;;;;;;;8.80;6.90;;;;;;;;;;5062620;28;20186;-71
2021/09/14 01:32:57;;;;;;;8.05;7.22;;;;;;;;;;5030488;28;20509;-71
2021/09/14 01:35:43;;;;;;;8.25;6.72;;;;;;;;;;5039046;28;20071;-72
2021/09/14 01:38:27;;;;;;;8.55;6.85;;;;;;;;;;5018983;28;20504;-71
2021/09/14 01:41:12;;;;;;;8.20;6.70;;;;;;;;;;5042397;28;20032;-71
2021/09/14 01:43:56;;;;;;;7.63;6.82;;;;;;;;;;5036234;28;20527;-70
2021/09/14 01:46:42;;;;;;;7.43;6.63;;;;;;;;;;5031647;28;20075;-71
2021/09/14 01:49:26;;;;;;;8.05;6.75;;;;;;;;;;5049654;28;20055;-70
2021/09/14 01:52:11;;;;;;;8.07;6.18;;;;;;;;;;5045244;28;20041;-71
2021/09/14 01:54:56;;;;;;;10.60;7.05;;;;;;;;;;5035476;28;20052;-71
2021/09/14 01:57:42;;;;;;;7.68;6.70;;;;;;;;;;5046449;28;20038;-71
2021/09/14 02:00:30;;;;;;;7.20;6.38;;;;;;;;;;5053502;28;20079;-70
2021/09/14 02:03:32;;;;;;;6.90;6.05;;;;;;;;;;5041843;28;20075;-71
2021/09/14 02:23:41;;;;;;;11.40;7.15;;;;;;;;;;5028576;28;20068;-71
2021/09/14 02:34:11;;;;;;;7.90;6.88;;;;;;;;;;5045038;28;20048;-71
2021/09/14 03:01:12;;;;;;;7.10;6.40;;;;;;;;;;5051151;28;20083;-70
2021/09/14 03:03:57;;;;;;;8.93;6.88;;;;;;;;;;5063313;28;20074;-70
2021/09/14 03:06:42;;;;;;;9.18;6.70;;;;;;;;;;5053980;28;20127;-70
2021/09/14 03:09:26;;;;;;;10.25;7.22;;;;;;;;;;5034268;28;20110;-70
2021/09/14 03:12:11;;;;;;;8.40;7.50;;;;;;;;;;5040548;28;20067;-70
2021/09/14 03:14:56;;;;;;;7.78;6.68;;;;;;;;;;5032398;28;20542;-71
2021/09/14 03:17:40;;;;;;;7.85;7.05;;;;;;;;;;5038299;28;20689;-70
2021/09/14 03:20:25;;;;;;;7.00;6.30;;;;;;;;;;5040793;28;20110;-70
2021/09/14 03:23:09;;;;;;;8.50;7.43;;;;;;;;;;5045598;28;20131;-70
2021/09/14 03:25:54;;;;;;;7.00;6.20;;;;;;;;;;5045376;28;20047;-70
2021/09/14 03:28:38;;;;;;;7.80;7.00;;;;;;;;;;5045894;28;20088;-70
2021/09/14 03:31:22;;;;;;;10.93;7.75;;;;;;;;;;5042623;28;20039;-71
2021/09/14 03:34:07;;;;;;;9.05;7.32;;;;;;;;;;5062920;28;20083;-70
2021/09/14 03:36:52;;;;;;;8.52;7.20;;;;;;;;;;5030613;28;20540;-70
2021/09/14 03:39:36;;;;;;;9.90;7.53;;;;;;;;;;5039972;28;20480;-71
2021/09/14 03:42:20;;;;;;;8.15;7.03;;;;;;;;;;5041147;28;20081;-70
2021/09/14 03:45:05;;;;;;;8.98;7.57;;;;;;;;;;5037722;28;20044;-70
2021/09/14 03:47:50;;;;;;;8.65;7.63;;;;;;;;;;5053898;28;20504;-70
2021/09/14 03:50:34;;;;;;;10.15;7.70;;;;;;;;;;5043188;28;20043;-70
2021/09/14 03:53:19;;;;;;;11.00;7.72;;;;;;;;;;5046203;28;20079;-70
2021/09/14 03:56:04;;;;;;;9.15;7.05;;;;;;;;;;5047140;28;20098;-70
2021/09/14 03:58:49;;;;;;;8.02;6.30;;;;;;;;;;5028693;28;20037;-70
2021/09/14 04:01:37;;;;;;;8.23;6.95;;;;;;;;;;5047296;28;20161;-70
2021/09/14 04:10:45;;;;;;;8.43;6.72;;;;;;;;;;5036453;28;20509;-71
2021/09/14 04:13:29;;;;;;;7.28;6.57;;;;;;;;;;5051423;28;20050;-70
2021/09/14 04:16:14;;;;;;;9.40;6.68;;;;;;;;;;5046503;28;20548;-70
2021/09/14 04:18:58;;;;;;;7.30;6.55;;;;;;;;;;5032421;28;20402;-70
2021/09/14 04:21:43;;;;;;;7.22;6.40;;;;;;;;;;5040569;28;20040;-70
2021/09/14 04:24:28;;;;;;;8.73;6.78;;;;;;;;;;5041312;28;20519;-70
2021/09/14 04:27:12;;;;;;;8.20;6.80;;;;;;;;;;5037670;28;20115;-71
2021/09/14 04:29:57;;;;;;;7.65;6.85;;;;;;;;;;5055554;28;20055;-70
2021/09/14 04:32:41;;;;;;;9.15;7.15;;;;;;;;;;5035587;28;20036;-71
2021/09/14 04:35:26;;;;;;;8.52;6.90;;;;;;;;;;5040483;28;20044;-70
2021/09/14 04:38:10;;;;;;;8.20;6.63;;;;;;;;;;5033011;28;20083;-70
2021/09/14 04:40:55;;;;;;;8.88;7.10;;;;;;;;;;5036025;28;20043;-70
2021/09/14 04:43:39;;;;;;;9.88;7.60;;;;;;;;;;5034791;28;20095;-70
2021/09/14 04:46:24;;;;;;;8.15;6.80;;;;;;;;;;5040243;28;20040;-70
2021/09/14 04:49:08;;;;;;;8.52;7.20;;;;;;;;;;5047002;28;20074;-72
2021/09/14 04:51:52;;;;;;;7.72;6.63;;;;;;;;;;5043258;28;20044;-70
2021/09/14 04:54:37;;;;;;;8.02;6.82;;;;;;;;;;5035039;28;20118;-71
2021/09/14 04:57:22;;;;;;;7.40;6.63;;;;;;;;;;5038090;28;20034;-71
2021/09/14 05:00:07;;;;;;;8.35;6.90;;;;;;;;;;5034654;28;20035;-71
2021/09/14 05:02:52;;;;;;;12.00;6.70;;;;;;;;;;5036882;28;20051;-70
2021/09/14 05:05:37;;;;;;;9.00;7.18;;;;;;;;;;5029534;28;20416;-71
2021/09/14 05:08:21;;;;;;;8.27;7.25;;;;;;;;;;5044559;28;20118;-72
2021/09/14 05:11:06;;;;;;;8.88;7.57;;;;;;;;;;5028878;28;20063;-72
2021/09/14 05:13:50;;;;;;;7.25;6.40;;;;;;;;;;5038200;28;20056;-72
2021/09/14 05:16:35;;;;;;;7.78;6.82;;;;;;;;;;5016437;28;20043;-71
2021/09/14 05:19:30;;;;;;;7.40;6.10;;;;;;;;;;5035380;28;20631;-72
2021/09/14 05:22:19;;;;;;;8.75;7.00;;;;;;;;;;5011751;28;20119;-72
2021/09/14 05:25:03;;;;;;;7.75;6.70;;;;;;;;;;5040216;28;20048;-71
2021/09/14 05:27:48;;;;;;;7.93;7.07;;;;;;;;;;5036020;28;20098;-71
2021/09/14 05:30:33;;;;;;;7.82;6.97;;;;;;;;;;5051016;28;20551;-72
2021/09/14 05:33:17;;;;;;;8.48;7.20;;;;;;;;;;5023894;28;20048;-71
2021/09/14 05:36:02;;;;;;;9.13;7.03;;;;;;;;;;5023882;28;20083;-70
2021/09/14 05:38:46;;;;;;;9.85;7.32;;;;;;;;;;5057542;28;20186;-70
2021/09/14 05:41:31;;;;;;;7.82;6.93;;;;;;;;;;5041039;28;20040;-71
2021/09/14 05:44:16;;;;;;;7.90;6.90;;;;;;;;;;5018594;28;20134;-70
2021/09/14 05:47:04;;;;;;;9.18;6.78;;;;;;;;;;5040939;28;20497;-71
2021/09/14 05:49:49;;;;;;;7.90;7.10;;;;;;;;;;5044055;28;20086;-71
2021/09/14 05:52:34;;;;;;;8.77;6.85;;;;;;;;;;5063270;28;20042;-71
2021/09/14 05:55:18;;;;;;;8.32;6.70;;;;;;;;;;5028714;28;20055;-71
2021/09/14 05:58:03;;;;;;;9.30;7.28;;;;;;;;;;5038519;28;20086;-72
2021/09/14 06:00:48;;;;;;;7.82;6.97;;;;;;;;;;5035835;28;20110;-71
2021/09/14 06:03:33;;;;;;;7.80;6.70;;;;;;;;;;5043407;28;20562;-70
2021/09/14 06:06:18;;;;;;;8.55;7.03;;;;;;;;;;5027013;28;20107;-71
2021/09/14 06:09:02;;;;;;;8.13;6.80;;;;;;;;;;5027798;28;20103;-70
2021/09/14 06:11:47;;;;;;;7.88;6.57;;;;;;;;;;5034660;28;20098;-71
2021/09/14 06:14:31;;;;;;;9.40;7.60;;;;;;;;;;5053284;28;20047;-71
2021/09/14 06:17:16;;;;;;;8.07;6.85;;;;;;;;;;5042958;28;20580;-70
2021/09/14 06:20:01;;;;;;;9.52;6.80;;;;;;;;;;5031008;28;20044;-71
2021/09/14 06:22:45;;;;;;;10.27;7.20;;;;;;;;;;5039638;28;20048;-73
2021/09/14 06:25:30;;;;;;;8.77;6.40;;;;;;;;;;5037583;28;20044;-71
2021/09/14 06:28:15;;;;;;;8.35;6.90;;;;;;;;;;5041452;28;20088;-71
2021/09/14 06:30:59;;;;;;;9.25;7.78;;;;;;;;;;5026320;28;20044;-71
2021/09/14 06:33:44;;;;;;;8.05;7.22;;;;;;;;;;5041091;28;20090;-71
2021/09/14 06:36:28;;;;;;;7.63;6.82;;;;;;;;;;5043627;28;20051;-71
2021/09/14 06:39:13;;;;;;;8.60;7.45;;;;;;;;;;5059937;28;20043;-71
2021/09/14 06:41:57;;;;;;;9.77;7.43;;;;;;;;;;5043801;28;20040;-70
2021/09/14 06:44:42;;;;;;;7.30;6.50;;;;;;;;;;5045779;28;20075;-70
2021/09/14 06:47:26;;;;;;;8.20;7.32;;;;;;;;;;5026888;28;20044;-71
2021/09/14 06:50:11;;;;;;;9.45;6.85;;;;;;;;;;5030204;28;20088;-71
2021/09/14 06:52:55;;;;;;;7.07;6.20;;;;;;;;;;5030356;28;20051;-71
2021/09/14 06:55:40;;;;;;;8.23;6.45;;;;;;;;;;5044424;28;20093;-71
2021/09/14 06:58:24;;;;;;;8.90;6.78;;;;;;;;;;5038020;28;20621;-71
2021/09/14 07:01:09;;;;;;;9.70;7.05;;;;;;;;;;5042373;28;20039;-71
2021/09/14 07:03:54;;;;;;;10.20;8.05;;;;;;;;;;5049251;28;20094;-71
2021/09/14 07:06:38;;;;;;;8.93;7.13;;;;;;;;;;5037255;28;20493;-70
2021/09/14 07:09:23;;;;;;;7.72;6.93;;;;;;;;;;5037930;28;20137;-71
2021/09/14 07:12:08;;;;;;;8.43;7.10;;;;;;;;;;5024941;28;20488;-72
2021/09/14 07:14:52;;;;;;;8.80;6.97;;;;;;;;;;5031189;28;20068;-71
2021/09/14 07:17:37;;;;;;;7.63;6.70;;;;;;;;;;5031038;28;20338;-71
2021/09/14 07:20:22;;;;;;;8.20;6.80;;;;;;;;;;5042799;28;20032;-70
2021/09/14 07:23:07;;;;;;;8.95;6.93;;;;;;;;;;5045526;28;20121;-71
2021/09/14 07:25:51;;;;;;;8.15;7.22;;;;;;;;;;5048423;28;20059;-71
2021/09/14 07:28:36;;;;;;;8.80;7.20;;;;;;;;;;5055416;28;20615;-71
2021/09/14 07:31:21;;;;;;;10.18;7.90;;;;;;;;;;5059724;28;20713;-71
2021/09/14 07:34:06;;;;;;;8.02;6.38;;;;;;;;;;5041665;28;20051;-71
2021/09/14 07:36:50;;;;;;;8.07;6.30;;;;;;;;;;5050226;28;20036;-71
2021/09/14 07:39:35;;;;;;;8.00;6.68;;;;;;;;;;5028667;28;20099;-71
2021/09/14 07:42:19;;;;;;;10.35;7.40;;;;;;;;;;5020330;28;20121;-71
2021/09/14 07:45:04;;;;;;;7.85;6.65;;;;;;;;;;5028027;28;20063;-71
2021/09/14 07:47:50;;;;;;;8.23;6.85;;;;;;;;;;5045736;28;20596;-71
2021/09/14 07:50:35;;;;;;;9.13;6.90;;;;;;;;;;5035806;28;20078;-71
2021/09/14 07:53:19;;;;;;;8.45;7.07;;;;;;;;;;5020145;28;20119;-71
2021/09/14 07:56:03;;;;;;;7.20;6.50;;;;;;;;;;5036548;28;20043;-71
2021/09/14 07:58:48;;;;;;;9.05;6.53;;;;;;;;;;5041560;28;20128;-73
2021/09/14 08:01:33;;;;;;;9.55;6.85;;;;;;;;;;5032161;28;20664;-71
2021/09/14 08:04:18;;;;;;;6.85;6.15;;;;;;;;;;5035182;28;20063;-71
2021/09/14 08:07:03;;;;;;;6.80;6.10;;;;;;;;;;5045126;28;20044;-71
2021/09/14 08:09:47;;;;;;;7.45;6.70;;;;;;;;;;5036481;28;20180;-71
2021/09/14 08:12:32;;;;;;;7.68;6.53;;;;;;;;;;5054391;28;20066;-71
2021/09/14 08:15:17;;;;;;;7.35;6.60;;;;;;;;;;5039904;28;20080;-72
2021/09/14 08:18:01;;;;;;;7.43;6.70;;;;;;;;;;5037842;28;20123;-72
2021/09/14 08:20:46;;;;;;;7.85;6.05;;;;;;;;;;5049361;28;20036;-72
2021/09/14 08:23:32;;;;;;;7.22;5.85;;;;;;;;;;5035961;28;20086;-72
2021/09/14 08:26:17;;;;;;;6.97;6.25;;;;;;;;;;5032933;28;20542;-71
2021/09/14 08:29:01;;;;;;;10.10;6.40;;;;;;;;;;5046603;28;20056;-72
2021/09/14 08:31:46;;;;;;;10.85;6.68;;;;;;;;;;5049289;28;20489;-71
2021/09/14 08:34:31;;;;;;;7.88;6.40;;;;;;;;;;5050719;28;20082;-72
2021/09/14 08:37:16;;;;;;;7.13;6.32;;;;;;;;;;5040642;28;20070;-71
2021/09/14 08:40:00;;;;;;;6.38;5.78;;;;;;;;;;5025991;28;20044;-71
2021/09/14 08:42:45;;;;;;;7.18;5.90;;;;;;;;;;5029399;28;20052;-71
2021/09/14 08:45:29;;;;;;;6.57;5.75;;;;;;;;;;5039170;28;20502;-71
2021/09/14 08:48:16;;;;;;;7.22;6.25;;;;;;;;;;5025885;28;20560;-71
2021/09/14 08:51:00;;;;;;;7.22;6.43;;;;;;;;;;5029858;28;20036;-71
2021/09/14 08:53:45;;;;;;;7.93;6.35;;;;;;;;;;5025255;28;20125;-72
2021/09/14 08:56:29;;;;;;;7.00;6.30;;;;;;;;;;5046220;28;20415;-71
2021/09/14 08:59:24;;;;;;;6.68;5.93;;;;;;;;;;5038744;28;20043;-71
2021/09/14 09:02:08;;;;;;;7.10;6.40;;;;;;;;;;5020416;28;20056;-71
2021/09/14 09:05:04;;;;;;;6.75;5.97;;;;;;;;;;5026210;28;20075;-71
2021/09/14 09:07:49;;;;;;;6.70;5.93;;;;;;;;;;5043372;28;20469;-71
2021/09/14 09:10:33;;;;;;;7.40;6.20;;;;;;;;;;5028898;28;20059;-71
2021/09/14 09:13:18;;;;;;;6.40;5.72;;;;;;;;;;5030347;28;20150;-72
2021/09/14 09:16:05;;;;;;;6.60;5.90;;;;;;;;;;5036629;28;20094;-73
2021/09/14 09:18:59;;;;;;;7.85;5.88;;;;;;;;;;5036690;28;20564;-70
2021/09/14 09:21:44;;;;;;;6.75;6.00;;;;;;;;;;5023849;28;20084;-71
2021/09/14 09:24:28;;;;;;;6.53;5.60;;;;;;;;;;5038609;28;20529;-71
2021/09/14 09:27:13;;;;;;;7.07;5.90;;;;;;;;;;5027609;28;20035;-72
2021/09/14 09:29:58;;;;;;;6.82;6.13;;;;;;;;;;5024214;28;20056;-71
2021/09/14 09:32:47;;;;;;;7.70;5.63;;;;;;;;;;5037541;28;20111;-72
2021/09/14 09:35:32;;;;;;;5.93;5.32;;;;;;;;;;5041264;28;20039;-72
2021/09/14 09:38:17;;;;;;;6.70;6.07;;;;;;;;;;5030472;28;20047;-73
2021/09/14 09:41:01;;;;;;;5.70;4.97;;;;;;;;;;5038444;28;20551;-69
2021/09/14 09:43:48;;;;;;;6.13;5.43;;;;;;;;;;5039273;28;20078;-69
2021/09/14 09:46:33;;;;;;;5.82;5.22;;;;;;;;;;5039721;28;20656;-69
2021/09/14 09:49:18;;;;;;;5.53;5.03;;;;;;;;;;5032313;28;20047;-70
2021/09/14 09:52:02;;;;;;;5.70;5.20;;;;;;;;;;5037945;28;20118;-69
2021/09/14 09:54:47;;;;;;;6.13;5.47;;;;;;;;;;5041093;28;20626;-69
2021/09/14 09:57:32;;;;;;;5.78;5.28;;;;;;;;;;5031741;28;20092;-69
2021/09/14 10:00:17;;;;;;;5.72;5.10;;;;;;;;;;5041571;28;20476;-69
2021/09/14 10:03:03;;;;;;;6.38;5.10;;;;;;;;;;5040344;28;20039;-69
2021/09/14 10:05:49;;;;;;;5.70;4.95;;;;;;;;;;5040364;28;20122;-70
2021/09/14 10:08:33;;;;;;;5.50;5.00;;;;;;;;;;5041669;28;20043;-69
2021/09/14 10:11:28;;;;;;;6.10;5.40;;;;;;;;;;5040471;28;20657;-69
2021/09/14 10:14:14;;;;;;;5.80;5.30;;;;;;;;;;5046041;28;20063;-69
2021/09/14 10:17:05;;;;;;;5.50;4.97;;;;;;;;;;5047346;28;20059;-70
2021/09/14 10:19:50;;;;;;;5.88;5.28;;;;;;;;;;5044962;28;20086;-70
2021/09/14 10:22:34;;;;;;;5.53;5.03;;;;;;;;;;5033255;28;20102;-70
2021/09/14 10:25:22;;;;;;;5.68;5.15;;;;;;;;;;5042889;28;20044;-70
2021/09/14 10:28:11;;;;;;;5.30;4.68;;;;;;;;;;5044937;28;20039;-70
2021/09/14 10:30:55;;;;;;;5.07;4.57;;;;;;;;;;5046739;28;20140;-71
2021/09/14 10:33:40;;;;;;;7.22;5.55;;;;;;;;;;5042507;28;20044;-72
2021/09/14 10:36:25;;;;;;;7.15;5.28;;;;;;;;;;5044603;28;20063;-72
2021/09/14 10:39:25;;;;;;;7.13;5.60;;;;;;;;;;5046987;28;20160;-71
2021/09/14 10:42:13;;;;;;;11.50;5.20;;;;;;;;;;5046555;28;20040;-72
2021/09/14 10:44:57;;;;;;;8.35;5.40;;;;;;;;;;5046823;28;20504;-72
2021/09/14 10:47:42;;;;;;;10.50;5.30;;;;;;;;;;5046457;28;20079;-71
2021/09/14 10:50:28;;;;;;;8.98;5.72;;;;;;;;;;5049115;28;20098;-70
2021/09/14 10:53:21;;;;;;;8.60;5.50;;;;;;;;;;5042623;28;20558;-70
2021/09/14 10:56:06;;;;;;;12.40;5.47;;;;;;;;;;5039020;28;20040;-70
2021/09/14 10:58:51;;;;;;;11.40;5.57;;;;;;;;;;5021399;28;20829;-70
2021/09/14 11:01:35;;;;;;;9.00;6.20;;;;;;;;;;5044548;28;20039;-71
2021/09/14 11:04:26;;;;;;;9.93;5.60;;;;;;;;;;5035522;28;20032;-70
2021/09/14 11:07:11;;;;;;;10.25;5.65;;;;;;;;;;5029462;28;20095;-71
2021/09/14 11:09:57;;;;;;;6.60;5.18;;;;;;;;;;5044853;28;20059;-72
2021/09/14 11:12:46;;;;;;;7.93;5.30;;;;;;;;;;5045605;28;20521;-70
2021/09/14 11:15:31;;;;;;;8.48;5.45;;;;;;;;;;5039695;28;20082;-71
2021/09/14 11:18:22;;;;;;;7.53;4.85;;;;;;;;;;5044291;28;20133;-71
2021/09/14 11:21:08;;;;;;;9.55;5.88;;;;;;;;;;5046122;28;20043;-72
2021/09/14 11:23:53;;;;;;;9.63;5.38;;;;;;;;;;5037183;28;20585;-71
2021/09/14 11:26:37;;;;;;;5.90;5.13;;;;;;;;;;5037582;28;20965;-71
2021/09/14 11:29:23;;;;;;;8.68;4.90;;;;;;;;;;5036483;28;20087;-70
2021/09/14 11:32:14;;;;;;;7.00;5.10;;;;;;;;;;5034564;28;20493;-71
2021/09/14 11:34:59;;;;;;;6.30;5.20;;;;;;;;;;5037029;28;20040;-70
2021/09/14 11:37:43;;;;;;;7.40;4.78;;;;;;;;;;5035082;28;20048;-71
2021/09/14 11:40:28;;;;;;;6.47;5.18;;;;;;;;;;5023051;28;20055;-69
2021/09/14 11:43:17;;;;;;;7.75;5.35;;;;;;;;;;5035316;28;20776;-70
2021/09/14 11:46:12;;;;;;;5.82;4.57;;;;;;;;;;5036548;28;20048;-70
2021/09/14 11:49:00;;;;;;;7.40;4.88;;;;;;;;;;5039309;28;20525;-71
2021/09/14 11:51:45;;;;;;;7.38;4.88;;;;;;;;;;5040878;28;20060;-70
2021/09/14 11:54:34;;;;;;;7.40;5.47;;;;;;;;;;5030883;28;20044;-71
2021/09/14 11:57:19;;;;;;;6.15;4.88;;;;;;;;;;5033175;28;20055;-73
2021/09/14 12:00:13;;;;;;;6.60;4.80;;;;;;;;;;5037049;28;20047;-73
2021/09/14 12:02:58;;;;;;;5.72;4.63;;;;;;;;;;5020514;28;20048;-75
2021/09/14 12:05:42;;;;;;;7.05;5.10;;;;;;;;;;5037529;28;20125;-73
2021/09/14 12:08:28;;;;;;;5.90;4.93;;;;;;;;;;5023474;28;20043;-74
2021/09/14 12:11:26;;;;;;;7.57;4.80;;;;;;;;;;5042525;28;20051;-74
2021/09/14 12:14:11;;;;;;;6.68;4.80;;;;;;;;;;5045553;28;20365;-72
2021/09/14 12:17:02;;;;;;;5.20;4.70;;;;;;;;;;5028167;28;20103;-73
2021/09/14 12:19:50;;;;;;;5.53;4.90;;;;;;;;;;5028684;28;20084;-73
2021/09/14 12:22:35;;;;;;;5.57;4.55;;;;;;;;;;5039565;28;20079;-74
2021/09/14 12:25:19;;;;;;;5.45;4.60;;;;;;;;;;5046478;28;20167;-74
2021/09/14 12:28:04;;;;;;;5.22;4.45;;;;;;;;;;5046048;28;20044;-74
2021/09/14 12:30:49;;;;;;;6.60;4.88;;;;;;;;;;5042929;28;20129;-74
2021/09/14 12:33:34;;;;;;;5.82;4.97;;;;;;;;;;5047825;28;20110;-74
2021/09/14 12:36:19;;;;;;;5.03;4.50;;;;;;;;;;5045589;28;20511;-75
2021/09/14 12:39:04;;;;;;;5.25;4.65;;;;;;;;;;5033021;28;20071;-74
2021/09/14 12:41:49;;;;;;;5.10;4.60;;;;;;;;;;5043423;28;20476;-74
2021/09/14 12:44:34;;;;;;;7.20;4.80;;;;;;;;;;5045137;28;20563;-73
2021/09/14 12:47:18;;;;;;;5.20;4.70;;;;;;;;;;5024978;28;20092;-73
2021/09/14 12:50:03;;;;;;;5.03;4.43;;;;;;;;;;5016751;28;20052;-73
2021/09/14 12:52:48;;;;;;;4.88;4.35;;;;;;;;;;5027140;28;20076;-73
2021/09/14 12:55:33;;;;;;;7.00;4.80;;;;;;;;;;5045663;28;20135;-74
2021/09/14 12:58:18;;;;;;;5.38;4.88;;;;;;;;;;5043612;28;20112;-74
2021/09/14 13:01:03;;;;;;;5.53;5.03;;;;;;;;;;5029837;28;20048;-74
2021/09/14 13:03:48;;;;;;;5.38;4.88;;;;;;;;;;5038132;28;20036;-73
2021/09/14 13:06:32;;;;;;;7.72;4.55;;;;;;;;;;5044765;28;20047;-73
2021/09/14 13:09:17;;;;;;;5.25;4.68;;;;;;;;;;5045443;28;20056;-73
2021/09/14 13:12:02;;;;;;;5.53;4.65;;;;;;;;;;5044446;28;20043;-73
2021/09/14 13:17:50;;;;;;;6.28;4.72;;;;;;;;;;5045232;28;20575;-74
2021/09/14 13:20:35;;;;;;;5.00;4.47;;;;;;;;;;5044113;28;20113;-73
2021/09/14 13:23:19;;;;;;;4.90;4.40;;;;;;;;;;5043613;28;20051;-73
2021/09/14 13:26:04;;;;;;;6.38;5.10;;;;;;;;;;5037132;28;20048;-73
2021/09/14 13:28:49;;;;;;;5.20;4.70;;;;;;;;;;5023601;28;20099;-72
2021/09/14 13:31:34;;;;;;;5.10;4.60;;;;;;;;;;5038813;28;20485;-72
2021/09/14 13:34:18;;;;;;;5.40;4.90;;;;;;;;;;5037005;28;20095;-72
2021/09/14 13:37:03;;;;;;;5.32;4.38;;;;;;;;;;5027624;28;20040;-73
2021/09/14 13:39:47;;;;;;;5.47;4.50;;;;;;;;;;5042146;28;20122;-74
2021/09/14 13:42:32;;;;;;;5.13;4.40;;;;;;;;;;5040290;28;20106;-74
2021/09/14 13:48:22;;;;;;;5.20;4.70;;;;;;;;;;5042754;28;20129;-73
2021/09/14 13:51:07;;;;;;;5.25;4.75;;;;;;;;;;5028910;28;20051;-73
2021/09/14 13:53:52;;;;;;;6.13;5.18;;;;;;;;;;5043309;28;20044;-74
2021/09/14 13:56:37;;;;;;;4.88;4.40;;;;;;;;;;5041725;28;20039;-73
2021/09/14 13:59:21;;;;;;;5.20;4.50;;;;;;;;;;5029296;28;20563;-73
2021/09/14 14:02:06;;;;;;;6.38;4.93;;;;;;;;;;5042864;28;20732;-73
2021/09/14 14:04:50;;;;;;;5.75;5.15;;;;;;;;;;5027070;28;20044;-73
2021/09/14 14:07:35;;;;;;;5.07;4.53;;;;;;;;;;5041918;28;20044;-74
2021/09/14 14:10:19;;;;;;;5.60;5.00;;;;;;;;;;5024825;28;20079;-74
2021/09/14 14:13:04;;;;;;;5.60;5.10;;;;;;;;;;5028639;28;20067;-73
2021/09/14 14:15:49;;;;;;;5.70;4.85;;;;;;;;;;5041732;28;20536;-73
2021/09/14 14:18:34;;;;;;;5.72;5.15;;;;;;;;;;5042220;28;20090;-73
2021/09/14 14:21:19;;;;;;;5.25;4.70;;;;;;;;;;5028903;28;20044;-73
2021/09/14 14:24:03;;;;;;;5.50;4.43;;;;;;;;;;5029233;28;20110;-74
2021/09/14 14:26:48;;;;;;;5.97;4.32;;;;;;;;;;5042174;28;20134;-74
2021/09/14 14:29:33;;;;;;;5.05;4.55;;;;;;;;;;5041042;28;20516;-73
2021/09/14 14:32:17;;;;;;;5.05;4.60;;;;;;;;;;5030336;28;20040;-73
2021/09/14 14:35:02;;;;;;;5.50;4.60;;;;;;;;;;5043323;28;20785;-73
2021/09/14 14:37:46;;;;;;;5.30;4.80;;;;;;;;;;5043256;28;20468;-74
2021/09/14 14:40:31;;;;;;;5.20;4.70;;;;;;;;;;5040730;28;20130;-72
2021/09/14 14:43:16;;;;;;;5.30;4.32;;;;;;;;;;5038980;28;20394;-73
2021/09/14 14:46:00;;;;;;;5.13;4.63;;;;;;;;;;5042475;28;20032;-73
2021/09/14 14:48:45;;;;;;;5.88;4.50;;;;;;;;;;5046463;28;20083;-73
2021/09/14 14:51:29;;;;;;;8.38;4.53;;;;;;;;;;5045907;28;20755;-72
2021/09/14 14:54:14;;;;;;;5.60;4.72;;;;;;;;;;5046432;28;20086;-73
2021/09/14 14:56:58;;;;;;;6.05;4.80;;;;;;;;;;5026542;28;20130;-73
2021/09/14 14:59:42;;;;;;;5.72;4.97;;;;;;;;;;5026708;28;20032;-73
2021/09/14 15:02:27;;;;;;;4.60;4.20;;;;;;;;;;5045436;28;20095;-73
2021/09/14 15:05:12;;;;;;;5.30;4.80;;;;;;;;;;5046199;28;20124;-73
2021/09/14 15:07:57;;;;;;;5.57;4.97;;;;;;;;;;5032312;28;20048;-73
2021/09/14 15:10:41;;;;;;;5.28;4.78;;;;;;;;;;5044699;28;20830;-73
2021/09/14 15:13:26;;;;;;;5.35;4.85;;;;;;;;;;5031152;28;20079;-73
2021/09/14 15:16:10;;;;;;;4.97;4.47;;;;;;;;;;5044607;28;20756;-73
2021/09/14 15:18:55;;;;;;;5.13;4.63;;;;;;;;;;5047230;28;20098;-73
2021/09/14 15:21:39;;;;;;;5.30;4.53;;;;;;;;;;5044036;28;20082;-72
2021/09/14 15:24:24;;;;;;;5.78;4.57;;;;;;;;;;5026176;28;20087;-72
2021/09/14 15:27:08;;;;;;;4.90;4.43;;;;;;;;;;5035861;28;20039;-71
2021/09/14 15:29:53;;;;;;;4.85;4.35;;;;;;;;;;5027110;28;20426;-73
2021/09/14 15:32:38;;;;;;;4.95;4.40;;;;;;;;;;5045150;28;20667;-73
2021/09/14 15:35:23;;;;;;;4.85;4.35;;;;;;;;;;5045750;28;20085;-74
2021/09/14 15:38:14;;;;;;;5.53;4.57;;;;;;;;;;5034228;28;20062;-73
2021/09/14 15:40:59;;;;;;;5.55;4.53;;;;;;;;;;5045800;28;20044;-73
2021/09/14 15:43:44;;;;;;;5.40;4.20;;;;;;;;;;5055390;28;20043;-73
2021/09/14 15:46:29;;;;;;;4.78;4.38;;;;;;;;;;5029202;28;20040;-73
2021/09/14 15:49:13;;;;;;;4.80;4.40;;;;;;;;;;5041079;28;20045;-72
2021/09/14 15:51:58;;;;;;;4.40;4.00;;;;;;;;;;5060332;28;20153;-73
2021/09/14 15:54:42;;;;;;;4.88;3.88;;;;;;;;;;5029854;28;20147;-73
2021/09/14 15:57:27;;;;;;;4.43;4.03;;;;;;;;;;5055766;28;20040;-72
2021/09/14 16:00:12;;;;;;;5.07;4.20;;;;;;;;;;5045198;28;20508;-73
2021/09/14 16:02:57;;;;;;;5.10;4.20;;;;;;;;;;5011770;28;20176;-73
2021/09/14 16:05:42;;;;;;;4.85;4.07;;;;;;;;;;5051704;28;20429;-73
2021/09/14 16:08:27;;;;;;;4.97;4.03;;;;;;;;;;5064065;28;20047;-73
2021/09/14 16:11:14;;;;;;;5.05;4.10;;;;;;;;;;5025725;28;20051;-73
2021/09/14 16:13:59;;;;;;;4.97;4.22;;;;;;;;;;5025000;28;20036;-74
2021/09/14 16:16:44;;;;;;;4.22;3.83;;;;;;;;;;5045793;28;20121;-73
2021/09/14 16:19:30;;;;;;;4.57;4.15;;;;;;;;;;5045792;28;20587;-73
2021/09/14 16:22:14;;;;;;;4.95;4.07;;;;;;;;;;5047160;28;20091;-73
2021/09/14 16:24:59;;;;;;;4.75;4.07;;;;;;;;;;5027298;28;20044;-73
2021/09/14 16:27:44;;;;;;;4.70;4.30;;;;;;;;;;5031047;28;20441;-74
2021/09/14 16:30:30;;;;;;;4.40;4.00;;;;;;;;;;5011126;28;20537;-74
2021/09/14 16:33:16;;;;;;;5.15;4.15;;;;;;;;;;5038611;28;20044;-74
2021/09/14 16:36:04;;;;;;;4.60;4.20;;;;;;;;;;5025985;28;20144;-74
2021/09/14 16:38:49;;;;;;;4.60;4.20;;;;;;;;;;5034597;28;20096;-74
2021/09/14 16:41:33;;;;;;;4.55;4.03;;;;;;;;;;5055910;28;20083;-74
2021/09/14 16:44:19;;;;;;;4.57;4.00;;;;;;;;;;5058985;28;20048;-74
2021/09/14 16:47:03;;;;;;;4.22;3.80;;;;;;;;;;5042743;28;20097;-73
2021/09/14 16:49:48;;;;;;;4.35;3.95;;;;;;;;;;5045700;28;20125;-74
2021/09/14 16:52:32;;;;;;;4.88;3.88;;;;;;;;;;5025609;28;20076;-74
2021/09/14 16:55:17;;;;;;;4.40;3.92;;;;;;;;;;5045520;28;20120;-75
2021/09/14 16:58:01;;;;;;;4.30;3.90;;;;;;;;;;5042375;28;20039;-73
2021/09/14 17:00:46;;;;;;;4.55;4.05;;;;;;;;;;5038749;28;20118;-74
2021/09/14 17:03:33;;;;;;;4.60;4.20;;;;;;;;;;5026775;28;20040;-73
2021/09/14 17:06:18;;;;;;;4.45;3.92;;;;;;;;;;5042591;28;20047;-73
2021/09/14 17:09:03;;;;;;;4.68;4.13;;;;;;;;;;5026745;28;20071;-73
2021/09/14 17:11:47;;;;;;;4.30;3.90;;;;;;;;;;5038150;28;20035;-73
2021/09/14 17:14:32;;;;;;;4.22;3.83;;;;;;;;;;5044458;28;20044;-73
2021/09/14 17:17:16;;;;;;;5.45;4.10;;;;;;;;;;5024117;28;20063;-74
2021/09/14 17:20:01;;;;;;;5.93;4.18;;;;;;;;;;5041480;28;20032;-73
2021/09/14 17:22:45;;;;;;;6.32;4.30;;;;;;;;;;5012643;28;20036;-73
2021/09/14 17:25:30;;;;;;;4.28;3.88;;;;;;;;;;5039041;28;20120;-73
2021/09/14 17:28:15;;;;;;;4.43;3.83;;;;;;;;;;5042723;28;20146;-74
2021/09/14 17:31:00;;;;;;;9.55;3.83;;;;;;;;;;5021773;28;20098;-73
2021/09/14 17:33:45;;;;;;;5.70;3.95;;;;;;;;;;5038277;28;20076;-74